Antwerp, OH

6:22 PM EST on January 28, 2015 (GMT -0500)
Lima Allen County | Change Station
CLOSE
Current Station
Airport
Location: Lima,
Elevation: 974 ft
Nearby Weather Stations
Active Advisory: Freezing Rain Advisory Active Notice: Public Information Statement

Elev 974 ft 40.71 °N, 84.03 °W | Updated 29 minutes ago

Partly Cloudy
Partly Cloudy
26 °F
Feels Like 16 °F
N
10
Wind Variable Wind from SSE

Today
High -- | Low -- °F
--% Chance of Precip.
Yesterday
High -- | Low -- °F
Precip. -- in
7:53 AM 5:50 PM
Waxing Gibbous, 68% visible
Pressure 30.29 in
Visibility 10.0 miles
Clouds Clear
Windchill 16 °F
Dew Point 14 °F
Humidity 60%
Rainfall 0.00 in
Snow Depth Not available.
UV 0 out of 12
Pollen .10 out of 12
Air Quality Not available.
Flu Activity Not available.
METAR KAOH 282253Z AUTO 16009KT 10SM CLR M03/M10 A3023 RMK AO2 SLP256 T10331100

More Conditions Fewer Conditions

Pressure 30.29 in
Visibility 10.0 miles
Clouds Clear
Windchill 16 °F
Dew Point 14 °F
Humidity 60%
Rainfall 0.00 in
Snow Depth Not available.
UV 0 out of 12
Pollen .10 out of 12
Air Quality Not available.
Flu Activity Not available.
METAR KAOH 282253Z AUTO 16009KT 10SM CLR M03/M10 A3023 RMK AO2 SLP256 T10331100

More Conditions Fewer Conditions

10-Day Weather Forecast

Almanac

Astronomy

Jan. 28, 2015 Rise Set
Actual Time
Civil Twilight
Nautical Twilight
Astronomical Twilight
Moon
Length of Visible Light
Length of Day
Tomorrow will be .
, % of the Moon is Illuminated

Today's Extremes

State Highs State Lows

Community

WunderPhotos

Upload Photos

1,791,295 photos uploaded!

WunderBlogs® & News

Nearby

Air Quality

  Air Quality AQ Index Pollutant
Not available.

Snow Depth

Station Depth Elevation

Earthquake Activity

City Distance Mag. Time & Date
Minimum magnitude displayed is 2.5.

Coastal Water Temperatures

Place Temperature

Nearby Weather Stations